sensor_id;sensor_type;location;lat;lon;timestamp;pressure;altitude;pressure_sealevel;temperature;humidity
67397;BME280;57728;50.448;18.824;2024-01-11T00:01:32;99017.44;;;-5.55;59.85
67397;BME280;57728;50.448;18.824;2024-01-11T00:03:34;98949.72;;;-5.99;60.06
67397;BME280;57728;50.448;18.824;2024-01-11T00:05:35;99023.78;;;-5.58;60.17
67397;BME280;57728;50.448;18.824;2024-01-11T00:07:37;99003.41;;;-5.70;60.25
67397;BME280;57728;50.448;18.824;2024-01-11T00:09:42;98998.09;;;-5.70;60.28
67397;BME280;57728;50.448;18.824;2024-01-11T00:11:43;99014.56;;;-5.65;60.01
67397;BME280;57728;50.448;18.824;2024-01-11T00:13:45;98967.94;;;-5.95;60.16
67397;BME280;57728;50.448;18.824;2024-01-11T00:15:47;98964.75;;;-6.00;60.48
67397;BME280;57728;50.448;18.824;2024-01-11T00:17:48;98934.19;;;-6.18;60.34
67397;BME280;57728;50.448;18.824;2024-01-11T00:19:50;98958.81;;;-6.03;60.52
67397;BME280;57728;50.448;18.824;2024-01-11T00:21:52;98993.19;;;-5.89;60.74
67397;BME280;57728;50.448;18.824;2024-01-11T00:23:54;98984.69;;;-5.94;61.04
67397;BME280;57728;50.448;18.824;2024-01-11T00:25:56;98932.13;;;-6.28;61.06
67397;BME280;57728;50.448;18.824;2024-01-11T00:27:57;98958.97;;;-6.19;61.19
67397;BME280;57728;50.448;18.824;2024-01-11T00:29:58;98965.78;;;-6.15;61.37
67397;BME280;57728;50.448;18.824;2024-01-11T00:32:01;98958.88;;;-6.18;61.53
67397;BME280;57728;50.448;18.824;2024-01-11T00:34:02;98973.63;;;-6.14;61.60
67397;BME280;57728;50.448;18.824;2024-01-11T00:36:04;98978.19;;;-6.16;61.66
67397;BME280;57728;50.448;18.824;2024-01-11T00:38:06;98972.13;;;-6.18;61.74
67397;BME280;57728;50.448;18.824;2024-01-11T00:40:07;98966.81;;;-6.18;61.81
67397;BME280;57728;50.448;18.824;2024-01-11T00:42:09;98963.34;;;-6.18;61.89
67397;BME280;57728;50.448;18.824;2024-01-11T00:44:11;98933.50;;;-6.35;61.90
67397;BME280;57728;50.448;18.824;2024-01-11T00:46:12;98926.38;;;-6.47;61.85
67397;BME280;57728;50.448;18.824;2024-01-11T00:48:13;98945.81;;;-6.34;61.97
67397;BME280;57728;50.448;18.824;2024-01-11T00:50:15;98893.16;;;-6.66;62.06
67397;BME280;57728;50.448;18.824;2024-01-11T00:52:17;98907.13;;;-6.64;62.25
67397;BME280;57728;50.448;18.824;2024-01-11T00:54:18;98953.34;;;-6.28;62.09
67397;BME280;57728;50.448;18.824;2024-01-11T00:56:20;98956.97;;;-6.29;62.13
67397;BME280;57728;50.448;18.824;2024-01-11T00:58:22;98946.47;;;-6.30;62.27
67397;BME280;57728;50.448;18.824;2024-01-11T01:00:23;98907.97;;;-6.63;62.14
67397;BME280;57728;50.448;18.824;2024-01-11T01:02:25;98941.50;;;-6.49;62.09
67397;BME280;57728;50.448;18.824;2024-01-11T01:04:26;98943.66;;;-6.42;62.06
67397;BME280;57728;50.448;18.824;2024-01-11T01:06:27;98890.97;;;-6.74;62.10
67397;BME280;57728;50.448;18.824;2024-01-11T01:08:29;98874.94;;;-6.85;62.12
67397;BME280;57728;50.448;18.824;2024-01-11T01:10:31;98971.25;;;-6.31;62.14
67397;BME280;57728;50.448;18.824;2024-01-11T01:12:32;98957.88;;;-6.43;61.96
67397;BME280;57728;50.448;18.824;2024-01-11T01:14:34;98948.09;;;-6.42;61.87
67397;BME280;57728;50.448;18.824;2024-01-11T01:16:35;98968.72;;;-6.33;62.01
67397;BME280;57728;50.448;18.824;2024-01-11T01:18:36;98930.38;;;-6.54;61.88
67397;BME280;57728;50.448;18.824;2024-01-11T01:20:38;98942.38;;;-6.49;61.90
67397;BME280;57728;50.448;18.824;2024-01-11T01:22:40;98937.34;;;-6.53;62.20
67397;BME280;57728;50.448;18.824;2024-01-11T01:24:41;98936.63;;;-6.55;62.06
67397;BME280;57728;50.448;18.824;2024-01-11T01:26:43;98935.38;;;-6.50;62.16
67397;BME280;57728;50.448;18.824;2024-01-11T01:28:44;98936.53;;;-6.54;62.24
67397;BME280;57728;50.448;18.824;2024-01-11T01:30:45;98850.34;;;-7.14;62.13
67397;BME280;57728;50.448;18.824;2024-01-11T01:32:47;98951.75;;;-6.58;62.34
67397;BME280;57728;50.448;18.824;2024-01-11T01:34:49;98960.78;;;-6.60;62.57
67397;BME280;57728;50.448;18.824;2024-01-11T01:36:50;98934.41;;;-6.76;62.51
67397;BME280;57728;50.448;18.824;2024-01-11T01:38:52;98951.69;;;-6.70;62.63
67397;BME280;57728;50.448;18.824;2024-01-11T01:40:53;98946.50;;;-6.72;62.86
67397;BME280;57728;50.448;18.824;2024-01-11T01:42:58;98891.94;;;-7.02;62.89
67397;BME280;57728;50.448;18.824;2024-01-11T01:45:03;98907.31;;;-6.94;63.05
67397;BME280;57728;50.448;18.824;2024-01-11T01:47:05;98904.22;;;-7.01;63.24
67397;BME280;57728;50.448;18.824;2024-01-11T01:49:07;98927.06;;;-6.85;63.25
67397;BME280;57728;50.448;18.824;2024-01-11T01:51:11;98903.44;;;-7.03;63.13
67397;BME280;57728;50.448;18.824;2024-01-11T01:53:12;98931.41;;;-6.84;63.21
67397;BME280;57728;50.448;18.824;2024-01-11T01:55:15;98919.97;;;-6.85;63.04
67397;BME280;57728;50.448;18.824;2024-01-11T01:57:18;98899.72;;;-6.86;63.33
67397;BME280;57728;50.448;18.824;2024-01-11T01:59:22;98892.38;;;-6.95;63.32
67397;BME280;57728;50.448;18.824;2024-01-11T02:01:27;98915.50;;;-6.84;63.15
67397;BME280;57728;50.448;18.824;2024-01-11T02:03:30;98877.38;;;-7.09;62.91
67397;BME280;57728;50.448;18.824;2024-01-11T02:05:32;98916.84;;;-6.77;63.11
67397;BME280;57728;50.448;18.824;2024-01-11T02:07:35;98893.03;;;-6.92;63.00
67397;BME280;57728;50.448;18.824;2024-01-11T02:09:37;98922.47;;;-6.69;62.95
67397;BME280;57728;50.448;18.824;2024-01-11T02:11:44;98897.53;;;-6.79;62.99
67397;BME280;57728;50.448;18.824;2024-01-11T02:13:46;98864.31;;;-6.98;62.76
67397;BME280;57728;50.448;18.824;2024-01-11T02:15:51;98893.75;;;-6.75;62.81
67397;BME280;57728;50.448;18.824;2024-01-11T02:17:52;98918.06;;;-6.55;62.68
67397;BME280;57728;50.448;18.824;2024-01-11T02:19:53;98911.63;;;-6.51;62.47
67397;BME280;57728;50.448;18.824;2024-01-11T02:22:01;98915.94;;;-6.50;62.49
67397;BME280;57728;50.448;18.824;2024-01-11T02:24:09;98863.22;;;-6.81;62.29
67397;BME280;57728;50.448;18.824;2024-01-11T02:26:14;98915.31;;;-6.54;62.30
67397;BME280;57728;50.448;18.824;2024-01-11T02:28:17;98904.06;;;-6.58;62.08
67397;BME280;57728;50.448;18.824;2024-01-11T02:30:18;98897.47;;;-6.65;62.03
67397;BME280;57728;50.448;18.824;2024-01-11T02:32:20;98846.88;;;-6.87;62.16
67397;BME280;57728;50.448;18.824;2024-01-11T02:34:24;98874.88;;;-6.70;62.06
67397;BME280;57728;50.448;18.824;2024-01-11T02:36:27;98874.06;;;-6.71;62.23
67397;BME280;57728;50.448;18.824;2024-01-11T02:38:28;98873.00;;;-6.68;62.16
67397;BME280;57728;50.448;18.824;2024-01-11T02:40:32;98892.19;;;-6.65;62.08
67397;BME280;57728;50.448;18.824;2024-01-11T02:42:34;98910.88;;;-6.53;62.25
67397;BME280;57728;50.448;18.824;2024-01-11T02:44:36;98910.88;;;-6.53;62.16
67397;BME280;57728;50.448;18.824;2024-01-11T02:46:38;98911.84;;;-6.54;61.93
67397;BME280;57728;50.448;18.824;2024-01-11T02:48:39;98898.44;;;-6.66;61.95
67397;BME280;57728;50.448;18.824;2024-01-11T02:50:41;98895.25;;;-6.71;62.18
67397;BME280;57728;50.448;18.824;2024-01-11T02:52:42;98909.66;;;-6.62;62.09
67397;BME280;57728;50.448;18.824;2024-01-11T02:54:44;98916.16;;;-6.53;62.01
67397;BME280;57728;50.448;18.824;2024-01-11T02:56:45;98909.09;;;-6.53;62.02
67397;BME280;57728;50.448;18.824;2024-01-11T02:58:47;98899.44;;;-6.54;61.98
67397;BME280;57728;50.448;18.824;2024-01-11T03:00:48;98901.88;;;-6.51;61.97
67397;BME280;57728;50.448;18.824;2024-01-11T03:02:49;98908.88;;;-6.50;61.92
67397;BME280;57728;50.448;18.824;2024-01-11T03:04:51;98908.22;;;-6.53;61.91
67397;BME280;57728;50.448;18.824;2024-01-11T03:06:53;98898.88;;;-6.59;61.86
67397;BME280;57728;50.448;18.824;2024-01-11T03:08:54;98905.88;;;-6.58;61.76
67397;BME280;57728;50.448;18.824;2024-01-11T03:10:56;98898.97;;;-6.61;61.98
67397;BME280;57728;50.448;18.824;2024-01-11T03:12:57;98903.66;;;-6.64;61.72
67397;BME280;57728;50.448;18.824;2024-01-11T03:14:58;98874.75;;;-6.82;62.09
67397;BME280;57728;50.448;18.824;2024-01-11T03:17:00;98865.41;;;-6.87;62.00
67397;BME280;57728;50.448;18.824;2024-01-11T03:19:02;98858.06;;;-6.97;62.08
67397;BME280;57728;50.448;18.824;2024-01-11T03:21:03;98860.91;;;-7.00;62.32
67397;BME280;57728;50.448;18.824;2024-01-11T03:23:05;98862.25;;;-7.07;62.32
67397;BME280;57728;50.448;18.824;2024-01-11T03:25:07;98891.94;;;-7.02;62.46
67397;BME280;57728;50.448;18.824;2024-01-11T03:27:09;98885.97;;;-7.05;62.59
67397;BME280;57728;50.448;18.824;2024-01-11T03:29:10;98864.56;;;-7.15;62.57
67397;BME280;57728;50.448;18.824;2024-01-11T03:31:11;98873.13;;;-7.12;62.71
67397;BME280;57728;50.448;18.824;2024-01-11T03:33:13;98870.59;;;-7.13;62.70
67397;BME280;57728;50.448;18.824;2024-01-11T03:35:15;98848.59;;;-7.28;63.00
67397;BME280;57728;50.448;18.824;2024-01-11T03:37:16;98864.72;;;-7.18;63.04
67397;BME280;57728;50.448;18.824;2024-01-11T03:39:18;98871.84;;;-7.19;63.07
67397;BME280;57728;50.448;18.824;2024-01-11T03:41:19;98744.53;;;-7.98;62.99
67397;BME280;57728;50.448;18.824;2024-01-11T03:43:20;98870.44;;;-7.24;63.11
67397;BME280;57728;50.448;18.824;2024-01-11T03:45:22;98876.13;;;-7.31;63.26
67397;BME280;57728;50.448;18.824;2024-01-11T03:47:24;98797.38;;;-7.69;63.23
67397;BME280;57728;50.448;18.824;2024-01-11T03:49:25;98844.00;;;-7.39;63.21
67397;BME280;57728;50.448;18.824;2024-01-11T03:51:27;98805.38;;;-7.56;63.26
67397;BME280;57728;50.448;18.824;2024-01-11T03:53:28;98868.50;;;-7.22;63.44
67397;BME280;57728;50.448;18.824;2024-01-11T03:55:29;98832.66;;;-7.41;63.25
67397;BME280;57728;50.448;18.824;2024-01-11T03:57:32;98858.13;;;-7.26;63.58
67397;BME280;57728;50.448;18.824;2024-01-11T03:59:33;98809.25;;;-7.47;63.61
67397;BME280;57728;50.448;18.824;2024-01-11T04:01:39;98842.47;;;-7.29;63.77
67397;BME280;57728;50.448;18.824;2024-01-11T04:03:42;98860.03;;;-7.28;63.80
67397;BME280;57728;50.448;18.824;2024-01-11T04:05:44;98818.69;;;-7.43;63.78
67397;BME280;57728;50.448;18.824;2024-01-11T04:07:45;98788.94;;;-7.61;63.95
67397;BME280;57728;50.448;18.824;2024-01-11T04:09:47;98861.25;;;-7.19;63.81
67397;BME280;57728;50.448;18.824;2024-01-11T04:11:48;98779.22;;;-7.61;63.72
67397;BME280;57728;50.448;18.824;2024-01-11T04:13:49;98803.22;;;-7.49;63.70
67397;BME280;57728;50.448;18.824;2024-01-11T04:15:51;98790.56;;;-7.58;63.65
67397;BME280;57728;50.448;18.824;2024-01-11T04:17:53;98839.91;;;-7.30;63.73
67397;BME280;57728;50.448;18.824;2024-01-11T04:19:54;98822.25;;;-7.44;63.54
67397;BME280;57728;50.448;18.824;2024-01-11T04:21:56;98797.00;;;-7.63;63.70
67397;BME280;57728;50.448;18.824;2024-01-11T04:23:57;98826.91;;;-7.48;63.61
67397;BME280;57728;50.448;18.824;2024-01-11T04:25:59;98841.72;;;-7.45;63.59
67397;BME280;57728;50.448;18.824;2024-01-11T04:28:01;98846.47;;;-7.50;63.59
67397;BME280;57728;50.448;18.824;2024-01-11T04:30:02;98868.44;;;-7.35;63.63
67397;BME280;57728;50.448;18.824;2024-01-11T04:32:04;98860.53;;;-7.50;63.80
67397;BME280;57728;50.448;18.824;2024-01-11T04:34:06;98848.44;;;-7.54;63.72
67397;BME280;57728;50.448;18.824;2024-01-11T04:36:08;98871.78;;;-7.46;63.81
67397;BME280;57728;50.448;18.824;2024-01-11T04:38:09;98865.00;;;-7.50;63.82
67397;BME280;57728;50.448;18.824;2024-01-11T04:40:12;98859.13;;;-7.55;63.86
67397;BME280;57728;50.448;18.824;2024-01-11T04:42:14;98860.25;;;-7.60;64.13
67397;BME280;57728;50.448;18.824;2024-01-11T04:44:15;98855.06;;;-7.61;64.19
67397;BME280;57728;50.448;18.824;2024-01-11T04:46:22;98862.38;;;-7.65;64.28
67397;BME280;57728;50.448;18.824;2024-01-11T04:48:23;98836.00;;;-7.81;64.41
67397;BME280;57728;50.448;18.824;2024-01-11T04:50:27;98844.59;;;-7.77;64.53
67397;BME280;57728;50.448;18.824;2024-01-11T04:52:29;98855.94;;;-7.75;64.38
67397;BME280;57728;50.448;18.824;2024-01-11T04:54:34;98840.25;;;-7.92;64.33
67397;BME280;57728;50.448;18.824;2024-01-11T04:56:35;98838.28;;;-7.74;64.56
67397;BME280;57728;50.448;18.824;2024-01-11T04:58:40;98829.31;;;-7.86;64.49
67397;BME280;57728;50.448;18.824;2024-01-11T05:00:43;98823.91;;;-7.85;64.54
67397;BME280;57728;50.448;18.824;2024-01-11T05:02:44;98771.91;;;-8.27;64.51
67397;BME280;57728;50.448;18.824;2024-01-11T05:04:47;98767.03;;;-8.19;64.57
67397;BME280;57728;50.448;18.824;2024-01-11T05:06:51;98828.38;;;-7.85;64.65
67397;BME280;57728;50.448;18.824;2024-01-11T05:08:53;98790.78;;;-8.05;64.76
67397;BME280;57728;50.448;18.824;2024-01-11T05:10:55;98809.78;;;-7.98;64.85
67397;BME280;57728;50.448;18.824;2024-01-11T05:12:56;98795.88;;;-8.02;65.09
67397;BME280;57728;50.448;18.824;2024-01-11T05:14:57;98802.13;;;-8.03;64.84
67397;BME280;57728;50.448;18.824;2024-01-11T05:16:59;98812.81;;;-8.04;65.00
67397;BME280;57728;50.448;18.824;2024-01-11T05:19:01;98809.09;;;-8.16;64.96
67397;BME280;57728;50.448;18.824;2024-01-11T05:21:02;98852.81;;;-7.96;64.92
67397;BME280;57728;50.448;18.824;2024-01-11T05:23:05;98847.72;;;-7.99;64.96
67397;BME280;57728;50.448;18.824;2024-01-11T05:25:06;98840.91;;;-8.03;65.12
67397;BME280;57728;50.448;18.824;2024-01-11T05:27:08;98806.75;;;-8.21;65.00
67397;BME280;57728;50.448;18.824;2024-01-11T05:29:10;98805.81;;;-8.20;65.41
67397;BME280;57728;50.448;18.824;2024-01-11T05:31:13;98808.81;;;-8.26;65.28
67397;BME280;57728;50.448;18.824;2024-01-11T05:33:18;98804.00;;;-8.19;65.36
67397;BME280;57728;50.448;18.824;2024-01-11T05:35:22;98796.91;;;-8.33;65.75
67397;BME280;57728;50.448;18.824;2024-01-11T05:37:24;98811.34;;;-8.24;65.55
67397;BME280;57728;50.448;18.824;2024-01-11T05:39:26;98801.38;;;-8.34;65.51
67397;BME280;57728;50.448;18.824;2024-01-11T05:41:28;98804.75;;;-8.32;65.51
67397;BME280;57728;50.448;18.824;2024-01-11T05:43:29;98809.69;;;-8.25;65.67
67397;BME280;57728;50.448;18.824;2024-01-11T05:45:31;98774.38;;;-8.39;65.68
67397;BME280;57728;50.448;18.824;2024-01-11T05:47:33;98799.75;;;-8.22;65.52
67397;BME280;57728;50.448;18.824;2024-01-11T05:49:34;98784.47;;;-8.31;65.64
67397;BME280;57728;50.448;18.824;2024-01-11T05:51:35;98812.78;;;-8.19;65.71
67397;BME280;57728;50.448;18.824;2024-01-11T05:53:37;98811.75;;;-8.16;65.53
67397;BME280;57728;50.448;18.824;2024-01-11T05:55:39;98724.22;;;-8.68;65.61
67397;BME280;57728;50.448;18.824;2024-01-11T05:57:40;98797.03;;;-8.20;65.51
67397;BME280;57728;50.448;18.824;2024-01-11T05:59:46;98773.03;;;-8.32;65.45
67397;BME280;57728;50.448;18.824;2024-01-11T06:01:47;98802.59;;;-8.10;65.38
67397;BME280;57728;50.448;18.824;2024-01-11T06:03:48;98773.81;;;-8.30;65.32
67397;BME280;57728;50.448;18.824;2024-01-11T06:05:50;98756.38;;;-8.47;65.32
67397;BME280;57728;50.448;18.824;2024-01-11T06:07:51;98814.00;;;-8.24;65.26
67397;BME280;57728;50.448;18.824;2024-01-11T06:09:53;98779.34;;;-8.34;65.14
67397;BME280;57728;50.448;18.824;2024-01-11T06:11:55;98780.44;;;-8.37;65.12
67397;BME280;57728;50.448;18.824;2024-01-11T06:13:56;98803.53;;;-8.26;65.40
67397;BME280;57728;50.448;18.824;2024-01-11T06:15:58;98802.50;;;-8.23;65.29
67397;BME280;57728;50.448;18.824;2024-01-11T06:18:00;98785.50;;;-8.34;65.40
67397;BME280;57728;50.448;18.824;2024-01-11T06:20:01;98798.25;;;-8.26;65.31
67397;BME280;57728;50.448;18.824;2024-01-11T06:22:02;98782.59;;;-8.29;65.42
67397;BME280;57728;50.448;18.824;2024-01-11T06:24:05;98780.03;;;-8.31;65.56
67397;BME280;57728;50.448;18.824;2024-01-11T06:26:07;98567.94;;;-9.61;65.59
67397;BME280;57728;50.448;18.824;2024-01-11T06:28:09;98753.13;;;-8.37;66.04
67397;BME280;57728;50.448;18.824;2024-01-11T06:30:11;98752.09;;;-8.35;66.15
67397;BME280;57728;50.448;18.824;2024-01-11T06:32:13;98760.78;;;-8.33;66.19
67397;BME280;57728;50.448;18.824;2024-01-11T06:34:14;98734.75;;;-8.39;66.47
67397;BME280;57728;50.448;18.824;2024-01-11T06:36:16;98745.16;;;-8.21;66.32
67397;BME280;57728;50.448;18.824;2024-01-11T06:38:17;98714.56;;;-8.25;66.41
67397;BME280;57728;50.448;18.824;2024-01-11T06:40:19;98724.00;;;-8.21;66.17
67397;BME280;57728;50.448;18.824;2024-01-11T06:42:21;98731.63;;;-8.02;66.28
67397;BME280;57728;50.448;18.824;2024-01-11T06:44:22;98730.38;;;-7.97;65.97
67397;BME280;57728;50.448;18.824;2024-01-11T06:46:24;98743.19;;;-7.90;65.90
67397;BME280;57728;50.448;18.824;2024-01-11T06:48:26;98715.34;;;-7.96;65.84
67397;BME280;57728;50.448;18.824;2024-01-11T06:50:28;98731.50;;;-7.86;65.67
67397;BME280;57728;50.448;18.824;2024-01-11T06:52:30;98723.47;;;-7.85;65.36
67397;BME280;57728;50.448;18.824;2024-01-11T06:54:32;98735.81;;;-7.71;65.21
67397;BME280;57728;50.448;18.824;2024-01-11T06:56:33;98696.34;;;-7.74;65.08
67397;BME280;57728;50.448;18.824;2024-01-11T06:58:34;98707.44;;;-7.54;65.05
67397;BME280;57728;50.448;18.824;2024-01-11T07:00:36;98718.88;;;-7.41;64.93
67397;BME280;57728;50.448;18.824;2024-01-11T07:02:38;98702.38;;;-7.45;64.91
67397;BME280;57728;50.448;18.824;2024-01-11T07:04:44;98628.94;;;-7.81;64.86
67397;BME280;57728;50.448;18.824;2024-01-11T07:06:47;98708.06;;;-7.23;64.65
67397;BME280;57728;50.448;18.824;2024-01-11T07:08:48;98718.44;;;-7.20;64.45
67397;BME280;57728;50.448;18.824;2024-01-11T07:10:49;98719.84;;;-7.15;64.22
67397;BME280;57728;50.448;18.824;2024-01-11T07:12:51;98717.75;;;-7.10;64.16
67397;BME280;57728;50.448;18.824;2024-01-11T07:14:52;98722.50;;;-7.02;64.09
67397;BME280;57728;50.448;18.824;2024-01-11T07:16:54;98740.63;;;-6.96;63.92
67397;BME280;57728;50.448;18.824;2024-01-11T07:18:56;98724.34;;;-6.89;63.65
67397;BME280;57728;50.448;18.824;2024-01-11T07:20:59;98653.97;;;-7.32;63.55
67397;BME280;57728;50.448;18.824;2024-01-11T07:23:00;98725.94;;;-6.87;63.45
67397;BME280;57728;50.448;18.824;2024-01-11T07:25:03;98702.13;;;-7.14;63.23
67397;BME280;57728;50.448;18.824;2024-01-11T07:27:06;98755.81;;;-6.72;62.96
67397;BME280;57728;50.448;18.824;2024-01-11T07:29:07;98737.06;;;-6.69;63.01
67397;BME280;57728;50.448;18.824;2024-01-11T07:31:10;98743.13;;;-6.67;62.89
67397;BME280;57728;50.448;18.824;2024-01-11T07:33:11;98708.97;;;-6.84;62.57
67397;BME280;57728;50.448;18.824;2024-01-11T07:35:13;98649.22;;;-7.14;62.44
67397;BME280;57728;50.448;18.824;2024-01-11T07:37:16;98708.47;;;-6.77;62.47
67397;BME280;57728;50.448;18.824;2024-01-11T07:39:17;98723.31;;;-6.61;62.16
67397;BME280;57728;50.448;18.824;2024-01-11T07:41:18;98713.53;;;-6.61;61.88
67397;BME280;57728;50.448;18.824;2024-01-11T07:43:20;98678.50;;;-6.77;61.91
67397;BME280;57728;50.448;18.824;2024-01-11T07:45:21;98693.13;;;-6.59;61.93
67397;BME280;57728;50.448;18.824;2024-01-11T07:47:23;98701.78;;;-6.44;61.98
67397;BME280;57728;50.448;18.824;2024-01-11T07:49:25;98652.50;;;-6.59;61.88
67397;BME280;57728;50.448;18.824;2024-01-11T07:51:27;98659.13;;;-6.28;61.49
67397;BME280;57728;50.448;18.824;2024-01-11T07:53:29;98655.63;;;-6.15;61.25
67397;BME280;57728;50.448;18.824;2024-01-11T07:55:34;98657.63;;;-6.06;61.06
67397;BME280;57728;50.448;18.824;2024-01-11T07:57:37;98628.16;;;-6.14;60.96
67397;BME280;57728;50.448;18.824;2024-01-11T07:59:39;98654.56;;;-5.89;60.76
67397;BME280;57728;50.448;18.824;2024-01-11T08:01:41;98659.09;;;-5.78;60.57
67397;BME280;57728;50.448;18.824;2024-01-11T08:03:43;98659.22;;;-5.79;60.58
67397;BME280;57728;50.448;18.824;2024-01-11T08:05:46;98682.09;;;-5.65;60.21
67397;BME280;57728;50.448;18.824;2024-01-11T08:07:48;98647.00;;;-5.82;60.15
67397;BME280;57728;50.448;18.824;2024-01-11T08:09:49;98669.81;;;-5.79;60.15
67397;BME280;57728;50.448;18.824;2024-01-11T08:11:50;98651.56;;;-5.84;59.97
67397;BME280;57728;50.448;18.824;2024-01-11T08:13:54;98658.97;;;-5.76;60.20
67397;BME280;57728;50.448;18.824;2024-01-11T08:15:55;98644.97;;;-5.78;60.21
67397;BME280;57728;50.448;18.824;2024-01-11T08:17:58;98620.31;;;-5.92;60.44
67397;BME280;57728;50.448;18.824;2024-01-11T08:20:03;98629.75;;;-5.88;60.41
67397;BME280;57728;50.448;18.824;2024-01-11T08:22:05;98658.28;;;-5.67;60.45
67397;BME280;57728;50.448;18.824;2024-01-11T08:24:07;98639.66;;;-5.78;60.57
67397;BME280;57728;50.448;18.824;2024-01-11T08:26:11;98587.44;;;-5.89;60.31
67397;BME280;57728;50.448;18.824;2024-01-11T08:28:14;98620.94;;;-5.64;60.44
67397;BME280;57728;50.448;18.824;2024-01-11T08:30:16;98663.22;;;-5.49;59.99
67397;BME280;57728;50.448;18.824;2024-01-11T08:32:18;98653.03;;;-5.56;59.78
67397;BME280;57728;50.448;18.824;2024-01-11T08:34:19;98656.78;;;-5.58;59.79
67397;BME280;57728;50.448;18.824;2024-01-11T08:36:20;98659.50;;;-5.47;59.86
67397;BME280;57728;50.448;18.824;2024-01-11T08:38:22;98668.69;;;-5.40;59.69
67397;BME280;57728;50.448;18.824;2024-01-11T08:40:25;98678.72;;;-5.32;60.03
67397;BME280;57728;50.448;18.824;2024-01-11T08:42:26;98649.47;;;-5.43;59.57
67397;BME280;57728;50.448;18.824;2024-01-11T08:44:28;98659.47;;;-5.23;59.73
67397;BME280;57728;50.448;18.824;2024-01-11T08:46:29;98652.97;;;-5.19;59.64
67397;BME280;57728;50.448;18.824;2024-01-11T08:48:31;98663.16;;;-4.90;59.40
67397;BME280;57728;50.448;18.824;2024-01-11T08:50:33;98653.28;;;-4.88;59.16
67397;BME280;57728;50.448;18.824;2024-01-11T08:52:34;98669.88;;;-4.61;59.14
67397;BME280;57728;50.448;18.824;2024-01-11T08:54:35;98651.38;;;-4.52;58.71
67397;BME280;57728;50.448;18.824;2024-01-11T08:56:37;98671.47;;;-4.25;58.64
67397;BME280;57728;50.448;18.824;2024-01-11T08:58:40;98647.53;;;-4.25;58.13
67397;BME280;57728;50.448;18.824;2024-01-11T09:00:41;98695.50;;;-3.92;57.81
67397;BME280;57728;50.448;18.824;2024-01-11T09:02:46;98648.94;;;-3.98;57.15
67397;BME280;57728;50.448;18.824;2024-01-11T09:04:47;98663.16;;;-3.76;57.23
67397;BME280;57728;50.448;18.824;2024-01-11T09:06:48;98698.34;;;-3.61;56.68
67397;BME280;57728;50.448;18.824;2024-01-11T09:08:50;98663.03;;;-3.75;56.77
67397;BME280;57728;50.448;18.824;2024-01-11T09:10:51;98663.88;;;-3.63;56.59
67397;BME280;57728;50.448;18.824;2024-01-11T09:12:53;98688.66;;;-3.51;56.47
67397;BME280;57728;50.448;18.824;2024-01-11T09:14:56;98665.06;;;-3.56;56.35
67397;BME280;57728;50.448;18.824;2024-01-11T09:16:57;98662.84;;;-3.51;56.35
67397;BME280;57728;50.448;18.824;2024-01-11T09:18:59;98664.28;;;-3.47;55.94
67397;BME280;57728;50.448;18.824;2024-01-11T09:21:01;98662.25;;;-3.43;56.15
67397;BME280;57728;50.448;18.824;2024-01-11T09:23:05;98681.38;;;-3.17;56.25
67397;BME280;57728;50.448;18.824;2024-01-11T09:25:06;98645.97;;;-3.29;55.90
67397;BME280;57728;50.448;18.824;2024-01-11T09:27:10;98659.31;;;-3.07;55.72
67397;BME280;57728;50.448;18.824;2024-01-11T09:29:11;98690.00;;;-2.92;55.72
67397;BME280;57728;50.448;18.824;2024-01-11T09:31:12;98659.25;;;-2.96;55.38
67397;BME280;57728;50.448;18.824;2024-01-11T09:33:14;98642.78;;;-3.01;55.30
67397;BME280;57728;50.448;18.824;2024-01-11T09:35:16;98661.16;;;-2.87;55.28
67397;BME280;57728;50.448;18.824;2024-01-11T09:37:17;98664.13;;;-2.80;55.22
67397;BME280;57728;50.448;18.824;2024-01-11T09:39:19;98664.44;;;-2.73;55.29
67397;BME280;57728;50.448;18.824;2024-01-11T09:41:20;98654.25;;;-2.68;55.07
67397;BME280;57728;50.448;18.824;2024-01-11T09:43:22;98632.25;;;-2.82;54.78
67397;BME280;57728;50.448;18.824;2024-01-11T09:45:25;98659.31;;;-2.65;54.65
67397;BME280;57728;50.448;18.824;2024-01-11T09:47:28;98621.75;;;-2.83;54.57
67397;BME280;57728;50.448;18.824;2024-01-11T09:49:33;98626.44;;;-2.75;54.73
67397;BME280;57728;50.448;18.824;2024-01-11T09:51:38;98613.59;;;-2.82;54.95
67397;BME280;57728;50.448;18.824;2024-01-11T09:53:42;98641.22;;;-2.62;54.91
67397;BME280;57728;50.448;18.824;2024-01-11T09:55:44;98637.16;;;-2.56;55.08
67397;BME280;57728;50.448;18.824;2024-01-11T09:57:52;98601.75;;;-2.68;54.94
67397;BME280;57728;50.448;18.824;2024-01-11T10:00:03;98613.31;;;-2.57;55.06
67397;BME280;57728;50.448;18.824;2024-01-11T10:02:11;98515.19;;;-3.04;55.09
67397;BME280;57728;50.448;18.824;2024-01-11T10:04:15;98618.75;;;-2.38;55.22
67397;BME280;57728;50.448;18.824;2024-01-11T10:06:17;98586.50;;;-2.56;55.03
67397;BME280;57728;50.448;18.824;2024-01-11T10:08:21;98604.97;;;-2.43;55.06
67397;BME280;57728;50.448;18.824;2024-01-11T10:10:23;98622.00;;;-2.34;54.98
67397;BME280;57728;50.448;18.824;2024-01-11T10:12:25;98619.59;;;-2.37;54.95
67397;BME280;57728;50.448;18.824;2024-01-11T10:14:26;98609.19;;;-2.40;55.22
67397;BME280;57728;50.448;18.824;2024-01-11T10:16:28;98613.22;;;-2.46;54.86
67397;BME280;57728;50.448;18.824;2024-01-11T10:18:29;98607.47;;;-2.51;55.14
67397;BME280;57728;50.448;18.824;2024-01-11T10:20:31;98599.59;;;-2.53;55.17
67397;BME280;57728;50.448;18.824;2024-01-11T10:22:33;98591.41;;;-2.61;55.14
67397;BME280;57728;50.448;18.824;2024-01-11T10:24:35;98605.63;;;-2.51;55.22
67397;BME280;57728;50.448;18.824;2024-01-11T10:26:37;98592.03;;;-2.48;55.35
67397;BME280;57728;50.448;18.824;2024-01-11T10:28:44;98583.00;;;-2.56;55.02
67397;BME280;57728;50.448;18.824;2024-01-11T10:30:46;98587.69;;;-2.49;55.15
67397;BME280;57728;50.448;18.824;2024-01-11T10:32:49;98595.59;;;-2.37;54.92
67397;BME280;57728;50.448;18.824;2024-01-11T10:34:51;98602.91;;;-2.30;54.98
67397;BME280;57728;50.448;18.824;2024-01-11T10:36:53;98608.97;;;-2.18;54.85
67397;BME280;57728;50.448;18.824;2024-01-11T10:38:55;98594.28;;;-2.02;54.93